sensor_id;sensor_type;location;lat;lon;timestamp;temperature;humidity
37998;DHT22;24079;51.824;4.682;2023-02-28T00:01:17;2.90;99.90
37998;DHT22;24079;51.824;4.682;2023-02-28T00:03:43;2.90;99.90
37998;DHT22;24079;51.824;4.682;2023-02-28T00:06:09;2.90;99.90
37998;DHT22;24079;51.824;4.682;2023-02-28T00:08:35;2.90;99.90
37998;DHT22;24079;51.824;4.682;2023-02-28T00:11:06;2.90;99.90
37998;DHT22;24079;51.824;4.682;2023-02-28T00:13:34;2.90;99.90
37998;DHT22;24079;51.824;4.682;2023-02-28T00:16:09;3.00;99.90
37998;DHT22;24079;51.824;4.682;2023-02-28T00:18:35;3.00;99.90
37998;DHT22;24079;51.824;4.682;2023-02-28T00:21:01;3.00;99.90
37998;DHT22;24079;51.824;4.682;2023-02-28T00:23:27;2.90;99.90
37998;DHT22;24079;51.824;4.682;2023-02-28T00:25:53;2.90;99.90
37998;DHT22;24079;51.824;4.682;2023-02-28T00:28:19;2.90;99.90
37998;DHT22;24079;51.824;4.682;2023-02-28T00:30:45;2.90;99.90
37998;DHT22;24079;51.824;4.682;2023-02-28T00:33:10;2.90;99.90
37998;DHT22;24079;51.824;4.682;2023-02-28T00:35:36;2.90;99.90
37998;DHT22;24079;51.824;4.682;2023-02-28T00:38:02;2.90;99.90
37998;DHT22;24079;51.824;4.682;2023-02-28T00:40:28;2.80;99.90
37998;DHT22;24079;51.824;4.682;2023-02-28T00:42:54;2.90;99.90
37998;DHT22;24079;51.824;4.682;2023-02-28T00:45:19;2.90;99.90
37998;DHT22;24079;51.824;4.682;2023-02-28T00:47:45;2.90;99.90
37998;DHT22;24079;51.824;4.682;2023-02-28T00:50:12;2.90;99.90
37998;DHT22;24079;51.824;4.682;2023-02-28T00:52:37;2.90;99.90
37998;DHT22;24079;51.824;4.682;2023-02-28T00:55:04;2.90;99.90
37998;DHT22;24079;51.824;4.682;2023-02-28T00:57:29;2.90;99.90
37998;DHT22;24079;51.824;4.682;2023-02-28T00:59:55;2.90;99.90
37998;DHT22;24079;51.824;4.682;2023-02-28T01:02:22;2.90;99.90
37998;DHT22;24079;51.824;4.682;2023-02-28T01:04:48;2.90;99.90
37998;DHT22;24079;51.824;4.682;2023-02-28T01:07:13;2.90;99.90
37998;DHT22;24079;51.824;4.682;2023-02-28T01:09:40;2.90;99.90
37998;DHT22;24079;51.824;4.682;2023-02-28T01:12:07;3.00;99.90
37998;DHT22;24079;51.824;4.682;2023-02-28T01:14:33;3.00;99.90
37998;DHT22;24079;51.824;4.682;2023-02-28T01:17:00;3.10;99.90
37998;DHT22;24079;51.824;4.682;2023-02-28T01:19:26;3.10;99.90
37998;DHT22;24079;51.824;4.682;2023-02-28T01:21:51;3.10;99.90
37998;DHT22;24079;51.824;4.682;2023-02-28T01:24:17;3.10;99.90
37998;DHT22;24079;51.824;4.682;2023-02-28T01:26:42;3.10;99.90
37998;DHT22;24079;51.824;4.682;2023-02-28T01:29:08;3.10;99.90
37998;DHT22;24079;51.824;4.682;2023-02-28T01:31:34;3.10;99.90
37998;DHT22;24079;51.824;4.682;2023-02-28T01:33:59;3.10;99.90
37998;DHT22;24079;51.824;4.682;2023-02-28T01:36:25;3.10;99.90
37998;DHT22;24079;51.824;4.682;2023-02-28T01:38:51;3.10;99.90
37998;DHT22;24079;51.824;4.682;2023-02-28T01:41:18;3.20;99.90
37998;DHT22;24079;51.824;4.682;2023-02-28T01:46:14;3.30;99.90
37998;DHT22;24079;51.824;4.682;2023-02-28T01:48:48;3.30;99.90
37998;DHT22;24079;51.824;4.682;2023-02-28T01:51:20;3.30;99.90
37998;DHT22;24079;51.824;4.682;2023-02-28T01:53:56;3.30;99.90
37998;DHT22;24079;51.824;4.682;2023-02-28T01:56:27;3.30;99.90
37998;DHT22;24079;51.824;4.682;2023-02-28T01:58:54;3.30;99.90
37998;DHT22;24079;51.824;4.682;2023-02-28T02:01:22;3.30;99.90
37998;DHT22;24079;51.824;4.682;2023-02-28T02:03:50;3.40;99.90
37998;DHT22;24079;51.824;4.682;2023-02-28T02:06:27;3.40;99.90
37998;DHT22;24079;51.824;4.682;2023-02-28T02:08:53;3.40;99.90
37998;DHT22;24079;51.824;4.682;2023-02-28T02:11:20;3.40;99.90
37998;DHT22;24079;51.824;4.682;2023-02-28T02:16:37;3.30;99.90
37998;DHT22;24079;51.824;4.682;2023-02-28T02:20:04;3.40;99.90
37998;DHT22;24079;51.824;4.682;2023-02-28T02:23:03;3.40;99.90
37998;DHT22;24079;51.824;4.682;2023-02-28T02:25:23;3.40;99.90
37998;DHT22;24079;51.824;4.682;2023-02-28T02:31:06;3.40;99.90
37998;DHT22;24079;51.824;4.682;2023-02-28T02:43:25;3.50;99.90
37998;DHT22;24079;51.824;4.682;2023-02-28T02:45:58;3.60;99.90
37998;DHT22;24079;51.824;4.682;2023-02-28T02:48:29;3.60;99.90
37998;DHT22;24079;51.824;4.682;2023-02-28T02:50:59;3.60;99.90
37998;DHT22;24079;51.824;4.682;2023-02-28T02:53:34;3.60;99.90
37998;DHT22;24079;51.824;4.682;2023-02-28T02:56:02;3.60;99.90
37998;DHT22;24079;51.824;4.682;2023-02-28T02:58:32;3.60;99.90
37998;DHT22;24079;51.824;4.682;2023-02-28T03:01:01;3.60;99.90
37998;DHT22;24079;51.824;4.682;2023-02-28T03:03:29;3.70;99.90
37998;DHT22;24079;51.824;4.682;2023-02-28T03:05:58;3.70;99.90
37998;DHT22;24079;51.824;4.682;2023-02-28T03:08:25;3.70;99.90
37998;DHT22;24079;51.824;4.682;2023-02-28T03:10:59;3.80;99.90
37998;DHT22;24079;51.824;4.682;2023-02-28T03:16:46;3.70;99.90
37998;DHT22;24079;51.824;4.682;2023-02-28T03:27:27;3.70;99.90
37998;DHT22;24079;51.824;4.682;2023-02-28T03:30:03;3.70;99.90
37998;DHT22;24079;51.824;4.682;2023-02-28T03:32:35;3.60;99.90
37998;DHT22;24079;51.824;4.682;2023-02-28T03:35:19;3.60;99.90
37998;DHT22;24079;51.824;4.682;2023-02-28T03:37:49;3.70;99.90
37998;DHT22;24079;51.824;4.682;2023-02-28T03:40:20;3.70;99.90
37998;DHT22;24079;51.824;4.682;2023-02-28T03:42:49;3.70;99.90
37998;DHT22;24079;51.824;4.682;2023-02-28T03:45:20;3.70;99.90
37998;DHT22;24079;51.824;4.682;2023-02-28T03:48:38;3.70;99.90
37998;DHT22;24079;51.824;4.682;2023-02-28T03:50:41;3.60;99.90
37998;DHT22;24079;51.824;4.682;2023-02-28T03:53:21;3.60;99.90
37998;DHT22;24079;51.824;4.682;2023-02-28T04:01:45;3.60;99.90
37998;DHT22;24079;51.824;4.682;2023-02-28T04:04:12;3.70;99.90
37998;DHT22;24079;51.824;4.682;2023-02-28T04:06:39;3.70;99.90
37998;DHT22;24079;51.824;4.682;2023-02-28T04:09:06;3.70;99.90
37998;DHT22;24079;51.824;4.682;2023-02-28T04:11:37;3.80;99.90
37998;DHT22;24079;51.824;4.682;2023-02-28T04:14:04;3.70;99.90
37998;DHT22;24079;51.824;4.682;2023-02-28T04:16:32;3.70;99.90
37998;DHT22;24079;51.824;4.682;2023-02-28T04:18:58;3.70;99.90
37998;DHT22;24079;51.824;4.682;2023-02-28T04:21:35;3.70;99.90
37998;DHT22;24079;51.824;4.682;2023-02-28T04:24:02;3.70;99.90
37998;DHT22;24079;51.824;4.682;2023-02-28T04:26:32;3.80;99.90
37998;DHT22;24079;51.824;4.682;2023-02-28T04:28:58;3.80;99.90
37998;DHT22;24079;51.824;4.682;2023-02-28T04:31:24;3.80;99.90
37998;DHT22;24079;51.824;4.682;2023-02-28T04:33:50;3.80;99.90
37998;DHT22;24079;51.824;4.682;2023-02-28T04:36:15;3.80;99.90
37998;DHT22;24079;51.824;4.682;2023-02-28T04:38:43;3.80;99.90
37998;DHT22;24079;51.824;4.682;2023-02-28T04:41:09;3.80;99.90
37998;DHT22;24079;51.824;4.682;2023-02-28T04:43:34;3.80;99.90
37998;DHT22;24079;51.824;4.682;2023-02-28T04:46:02;3.80;99.90
37998;DHT22;24079;51.824;4.682;2023-02-28T04:48:30;3.80;99.90
37998;DHT22;24079;51.824;4.682;2023-02-28T04:51:03;3.70;99.90
37998;DHT22;24079;51.824;4.682;2023-02-28T04:53:30;3.70;99.90
37998;DHT22;24079;51.824;4.682;2023-02-28T04:55:56;3.80;99.90
37998;DHT22;24079;51.824;4.682;2023-02-28T04:58:22;3.70;99.90
37998;DHT22;24079;51.824;4.682;2023-02-28T05:00:52;3.70;99.90
37998;DHT22;24079;51.824;4.682;2023-02-28T05:03:18;3.80;99.90
37998;DHT22;24079;51.824;4.682;2023-02-28T05:05:46;3.80;99.90
37998;DHT22;24079;51.824;4.682;2023-02-28T05:08:11;3.80;99.90
37998;DHT22;24079;51.824;4.682;2023-02-28T05:10:37;3.80;99.90
37998;DHT22;24079;51.824;4.682;2023-02-28T05:13:02;3.80;99.90
37998;DHT22;24079;51.824;4.682;2023-02-28T05:15:28;3.80;99.90
37998;DHT22;24079;51.824;4.682;2023-02-28T05:17:54;3.80;99.90
37998;DHT22;24079;51.824;4.682;2023-02-28T05:20:19;3.80;99.90
37998;DHT22;24079;51.824;4.682;2023-02-28T05:22:46;3.70;99.90
37998;DHT22;24079;51.824;4.682;2023-02-28T05:25:16;3.70;99.90
37998;DHT22;24079;51.824;4.682;2023-02-28T05:27:42;3.80;99.90
37998;DHT22;24079;51.824;4.682;2023-02-28T05:30:08;3.80;99.90
37998;DHT22;24079;51.824;4.682;2023-02-28T05:32:36;3.70;99.90
37998;DHT22;24079;51.824;4.682;2023-02-28T05:35:03;3.80;99.90
37998;DHT22;24079;51.824;4.682;2023-02-28T05:37:28;3.80;99.90
37998;DHT22;24079;51.824;4.682;2023-02-28T05:39:54;3.70;99.90
37998;DHT22;24079;51.824;4.682;2023-02-28T05:42:20;3.80;99.90
37998;DHT22;24079;51.824;4.682;2023-02-28T05:44:46;3.70;99.90
37998;DHT22;24079;51.824;4.682;2023-02-28T05:47:11;3.70;99.90
37998;DHT22;24079;51.824;4.682;2023-02-28T05:49:41;3.70;99.90
37998;DHT22;24079;51.824;4.682;2023-02-28T05:52:07;3.70;99.90
37998;DHT22;24079;51.824;4.682;2023-02-28T05:54:32;3.60;99.90
37998;DHT22;24079;51.824;4.682;2023-02-28T05:56:58;3.70;99.90
37998;DHT22;24079;51.824;4.682;2023-02-28T05:59:23;3.80;99.90
37998;DHT22;24079;51.824;4.682;2023-02-28T06:01:49;3.80;99.90
37998;DHT22;24079;51.824;4.682;2023-02-28T06:04:17;3.70;99.90
37998;DHT22;24079;51.824;4.682;2023-02-28T06:06:48;3.70;99.90
37998;DHT22;24079;51.824;4.682;2023-02-28T06:09:15;3.70;99.90
37998;DHT22;24079;51.824;4.682;2023-02-28T06:11:41;3.70;99.90
37998;DHT22;24079;51.824;4.682;2023-02-28T06:14:14;3.70;99.90
37998;DHT22;24079;51.824;4.682;2023-02-28T06:16:40;3.60;99.90
37998;DHT22;24079;51.824;4.682;2023-02-28T06:19:06;3.60;99.90
37998;DHT22;24079;51.824;4.682;2023-02-28T06:21:32;3.60;99.90
37998;DHT22;24079;51.824;4.682;2023-02-28T06:23:58;3.60;99.90
37998;DHT22;24079;51.824;4.682;2023-02-28T06:26:24;3.50;99.90
37998;DHT22;24079;51.824;4.682;2023-02-28T06:28:50;3.50;99.90
37998;DHT22;24079;51.824;4.682;2023-02-28T06:31:17;3.60;99.90
37998;DHT22;24079;51.824;4.682;2023-02-28T06:33:44;3.50;99.90
37998;DHT22;24079;51.824;4.682;2023-02-28T06:36:11;3.50;99.90
37998;DHT22;24079;51.824;4.682;2023-02-28T06:38:38;3.50;99.90
37998;DHT22;24079;51.824;4.682;2023-02-28T06:41:04;3.50;99.90
37998;DHT22;24079;51.824;4.682;2023-02-28T06:43:34;3.50;99.90
37998;DHT22;24079;51.824;4.682;2023-02-28T06:46:02;3.50;99.90
37998;DHT22;24079;51.824;4.682;2023-02-28T06:48:28;3.60;99.90
37998;DHT22;24079;51.824;4.682;2023-02-28T06:51:09;3.60;99.90
37998;DHT22;24079;51.824;4.682;2023-02-28T06:53:35;3.50;99.90
37998;DHT22;24079;51.824;4.682;2023-02-28T06:56:13;3.50;99.90
37998;DHT22;24079;51.824;4.682;2023-02-28T06:58:39;3.60;99.90
37998;DHT22;24079;51.824;4.682;2023-02-28T07:01:06;3.50;99.90
37998;DHT22;24079;51.824;4.682;2023-02-28T07:03:34;3.50;99.90
37998;DHT22;24079;51.824;4.682;2023-02-28T07:06:00;3.60;99.90
37998;DHT22;24079;51.824;4.682;2023-02-28T07:08:26;3.60;99.90
37998;DHT22;24079;51.824;4.682;2023-02-28T07:10:55;3.60;99.90
37998;DHT22;24079;51.824;4.682;2023-02-28T07:13:21;3.60;99.90
37998;DHT22;24079;51.824;4.682;2023-02-28T07:16:01;3.60;99.90
37998;DHT22;24079;51.824;4.682;2023-02-28T07:18:28;3.50;99.90
37998;DHT22;24079;51.824;4.682;2023-02-28T07:20:53;3.50;99.90
37998;DHT22;24079;51.824;4.682;2023-02-28T07:23:19;3.50;99.90
37998;DHT22;24079;51.824;4.682;2023-02-28T07:25:45;3.50;99.90
37998;DHT22;24079;51.824;4.682;2023-02-28T07:28:12;3.50;99.90
37998;DHT22;24079;51.824;4.682;2023-02-28T07:30:39;3.50;99.90
37998;DHT22;24079;51.824;4.682;2023-02-28T07:33:04;3.60;99.90
37998;DHT22;24079;51.824;4.682;2023-02-28T07:35:30;3.60;99.90
37998;DHT22;24079;51.824;4.682;2023-02-28T07:38:00;3.60;99.90
37998;DHT22;24079;51.824;4.682;2023-02-28T07:40:26;3.60;99.90
37998;DHT22;24079;51.824;4.682;2023-02-28T07:42:51;3.60;99.90
37998;DHT22;24079;51.824;4.682;2023-02-28T07:45:17;3.60;99.90
37998;DHT22;24079;51.824;4.682;2023-02-28T07:47:44;3.60;99.90
37998;DHT22;24079;51.824;4.682;2023-02-28T07:50:12;3.70;99.90
37998;DHT22;24079;51.824;4.682;2023-02-28T07:52:38;3.60;99.90
37998;DHT22;24079;51.824;4.682;2023-02-28T07:55:05;3.70;99.90
37998;DHT22;24079;51.824;4.682;2023-02-28T07:57:31;3.70;99.90
37998;DHT22;24079;51.824;4.682;2023-02-28T07:59:57;3.70;99.90
37998;DHT22;24079;51.824;4.682;2023-02-28T08:02:23;3.70;99.90
37998;DHT22;24079;51.824;4.682;2023-02-28T08:04:49;3.70;99.90
37998;DHT22;24079;51.824;4.682;2023-02-28T08:07:15;3.70;99.90
37998;DHT22;24079;51.824;4.682;2023-02-28T08:09:42;3.70;99.90
37998;DHT22;24079;51.824;4.682;2023-02-28T08:12:08;3.70;99.90
37998;DHT22;24079;51.824;4.682;2023-02-28T08:14:35;3.70;99.90
37998;DHT22;24079;51.824;4.682;2023-02-28T08:17:00;3.70;99.90
37998;DHT22;24079;51.824;4.682;2023-02-28T08:19:26;3.60;99.90
37998;DHT22;24079;51.824;4.682;2023-02-28T08:21:52;3.60;99.90
37998;DHT22;24079;51.824;4.682;2023-02-28T08:24:18;3.60;99.90
37998;DHT22;24079;51.824;4.682;2023-02-28T08:26:43;3.60;99.90
37998;DHT22;24079;51.824;4.682;2023-02-28T08:29:09;3.60;99.90
37998;DHT22;24079;51.824;4.682;2023-02-28T08:31:35;3.50;99.90
37998;DHT22;24079;51.824;4.682;2023-02-28T08:34:06;3.50;99.90
37998;DHT22;24079;51.824;4.682;2023-02-28T08:36:32;3.50;99.90
37998;DHT22;24079;51.824;4.682;2023-02-28T08:38:57;3.50;99.90
37998;DHT22;24079;51.824;4.682;2023-02-28T08:41:25;3.50;99.90
37998;DHT22;24079;51.824;4.682;2023-02-28T08:43:50;3.50;99.90
37998;DHT22;24079;51.824;4.682;2023-02-28T08:46:16;3.60;99.90
37998;DHT22;24079;51.824;4.682;2023-02-28T08:48:42;3.70;99.90
37998;DHT22;24079;51.824;4.682;2023-02-28T08:51:12;3.70;99.90
37998;DHT22;24079;51.824;4.682;2023-02-28T08:53:39;3.70;99.90
37998;DHT22;24079;51.824;4.682;2023-02-28T08:56:13;3.80;99.90
37998;DHT22;24079;51.824;4.682;2023-02-28T08:58:39;3.90;99.90
37998;DHT22;24079;51.824;4.682;2023-02-28T09:01:25;3.80;99.90
37998;DHT22;24079;51.824;4.682;2023-02-28T09:03:52;3.70;99.90
37998;DHT22;24079;51.824;4.682;2023-02-28T09:06:19;3.70;99.90
37998;DHT22;24079;51.824;4.682;2023-02-28T09:08:45;3.70;99.90
37998;DHT22;24079;51.824;4.682;2023-02-28T09:11:11;3.70;99.90
37998;DHT22;24079;51.824;4.682;2023-02-28T09:13:37;3.70;99.90
37998;DHT22;24079;51.824;4.682;2023-02-28T09:16:06;3.80;99.90
37998;DHT22;24079;51.824;4.682;2023-02-28T09:18:34;3.90;99.90
37998;DHT22;24079;51.824;4.682;2023-02-28T09:21:03;3.90;99.90
37998;DHT22;24079;51.824;4.682;2023-02-28T09:23:30;4.10;99.90
37998;DHT22;24079;51.824;4.682;2023-02-28T09:25:55;4.20;99.90
37998;DHT22;24079;51.824;4.682;2023-02-28T09:28:22;4.30;99.90
37998;DHT22;24079;51.824;4.682;2023-02-28T09:30:50;4.30;99.90
37998;DHT22;24079;51.824;4.682;2023-02-28T09:33:17;4.40;99.90
37998;DHT22;24079;51.824;4.682;2023-02-28T09:35:47;4.50;99.90
37998;DHT22;24079;51.824;4.682;2023-02-28T09:38:13;4.50;99.90
37998;DHT22;24079;51.824;4.682;2023-02-28T09:43:15;4.30;99.90
37998;DHT22;24079;51.824;4.682;2023-02-28T09:45:52;4.40;99.90
37998;DHT22;24079;51.824;4.682;2023-02-28T09:48:32;4.50;99.90
37998;DHT22;24079;51.824;4.682;2023-02-28T09:53:48;4.60;99.90
37998;DHT22;24079;51.824;4.682;2023-02-28T09:56:43;4.70;99.90
37998;DHT22;24079;51.824;4.682;2023-02-28T10:01:57;4.60;99.90
37998;DHT22;24079;51.824;4.682;2023-02-28T10:10:24;4.80;99.90
37998;DHT22;24079;51.824;4.682;2023-02-28T10:12:54;5.10;99.90
37998;DHT22;24079;51.824;4.682;2023-02-28T10:15:23;5.40;99.90
37998;DHT22;24079;51.824;4.682;2023-02-28T10:17:54;5.70;99.90
37998;DHT22;24079;51.824;4.682;2023-02-28T10:20:23;5.90;99.90
37998;DHT22;24079;51.824;4.682;2023-02-28T10:23:20;6.00;99.90
37998;DHT22;24079;51.824;4.682;2023-02-28T10:25:54;6.10;99.90
37998;DHT22;24079;51.824;4.682;2023-02-28T10:28:20;6.20;99.90
37998;DHT22;24079;51.824;4.682;2023-02-28T10:30:51;6.20;99.90
37998;DHT22;24079;51.824;4.682;2023-02-28T10:35:55;6.50;99.90
37998;DHT22;24079;51.824;4.682;2023-02-28T10:38:26;6.60;99.90
37998;DHT22;24079;51.824;4.682;2023-02-28T10:41:03;6.80;99.90
37998;DHT22;24079;51.824;4.682;2023-02-28T10:43:28;6.90;99.90
37998;DHT22;24079;51.824;4.682;2023-02-28T10:48:42;6.90;99.90
37998;DHT22;24079;51.824;4.682;2023-02-28T10:51:11;6.80;99.90
37998;DHT22;24079;51.824;4.682;2023-02-28T10:53:47;6.80;99.90
37998;DHT22;24079;51.824;4.682;2023-02-28T10:56:22;6.50;99.90
37998;DHT22;24079;51.824;4.682;2023-02-28T10:59:43;6.50;99.90
37998;DHT22;24079;51.824;4.682;2023-02-28T11:01:49;6.60;99.90
37998;DHT22;24079;51.824;4.682;2023-02-28T11:07:19;6.70;99.90
37998;DHT22;24079;51.824;4.682;2023-02-28T11:09:48;6.60;99.90
37998;DHT22;24079;51.824;4.682;2023-02-28T11:14:51;6.60;99.90
37998;DHT22;24079;51.824;4.682;2023-02-28T11:17:28;6.70;99.90
37998;DHT22;24079;51.824;4.682;2023-02-28T11:20:05;6.70;99.90
37998;DHT22;24079;51.824;4.682;2023-02-28T11:22:37;6.90;99.90
37998;DHT22;24079;51.824;4.682;2023-02-28T11:25:12;6.90;99.90
37998;DHT22;24079;51.824;4.682;2023-02-28T11:27:50;6.70;99.90
37998;DHT22;24079;51.824;4.682;2023-02-28T11:30:39;6.70;99.90
37998;DHT22;24079;51.824;4.682;2023-02-28T11:33:28;6.60;99.90
37998;DHT22;24079;51.824;4.682;2023-02-28T11:36:04;6.70;99.90
37998;DHT22;24079;51.824;4.682;2023-02-28T11:38:35;6.80;99.90
37998;DHT22;24079;51.824;4.682;2023-02-28T11:44:13;6.80;99.90
37998;DHT22;24079;51.824;4.682;2023-02-28T11:46:54;6.80;99.90
37998;DHT22;24079;51.824;4.682;2023-02-28T11:49:32;6.80;99.90
37998;DHT22;24079;51.824;4.682;2023-02-28T11:52:20;6.90;99.90
37998;DHT22;24079;51.824;4.682;2023-02-28T12:03:26;6.70;99.90
37998;DHT22;24079;51.824;4.682;2023-02-28T12:12:31;6.90;99.90
37998;DHT22;24079;51.824;4.682;2023-02-28T12:15:32;6.90;99.90
37998;DHT22;24079;51.824;4.682;2023-02-28T12:18:12;7.00;99.90
37998;DHT22;24079;51.824;4.682;2023-02-28T12:26:59;6.70;99.90
37998;DHT22;24079;51.824;4.682;2023-02-28T12:29:32;6.80;99.90
37998;DHT22;24079;51.824;4.682;2023-02-28T12:32:18;6.80;99.90
37998;DHT22;24079;51.824;4.682;2023-02-28T12:34:52;6.80;99.90
37998;DHT22;24079;51.824;4.682;2023-02-28T12:37:29;6.80;99.90
37998;DHT22;24079;51.824;4.682;2023-02-28T12:40:03;6.70;99.90
37998;DHT22;24079;51.824;4.682;2023-02-28T12:42:36;6.80;99.90
37998;DHT22;24079;51.824;4.682;2023-02-28T12:45:10;6.80;99.90
37998;DHT22;24079;51.824;4.682;2023-02-28T12:47:40;6.90;99.90
37998;DHT22;24079;51.824;4.682;2023-02-28T12:50:09;6.90;99.90
37998;DHT22;24079;51.824;4.682;2023-02-28T13:00:48;6.90;99.90
37998;DHT22;24079;51.824;4.682;2023-02-28T13:09:02;6.80;99.90
37998;DHT22;24079;51.824;4.682;2023-02-28T13:11:45;7.00;99.90
37998;DHT22;24079;51.824;4.682;2023-02-28T13:14:37;6.90;99.90
37998;DHT22;24079;51.824;4.682;2023-02-28T13:19:58;7.00;99.90
37998;DHT22;24079;51.824;4.682;2023-02-28T13:24:56;7.00;99.90
37998;DHT22;24079;51.824;4.682;2023-02-28T13:27:24;6.90;99.90
37998;DHT22;24079;51.824;4.682;2023-02-28T13:29:51;6.90;99.90
37998;DHT22;24079;51.824;4.682;2023-02-28T13:55:25;6.80;99.90
37998;DHT22;24079;51.824;4.682;2023-02-28T14:03:30;6.90;99.90
37998;DHT22;24079;51.824;4.682;2023-02-28T14:06:28;6.90;99.90
37998;DHT22;24079;51.824;4.682;2023-02-28T14:09:41;6.90;99.90
37998;DHT22;24079;51.824;4.682;2023-02-28T14:11:49;7.00;99.90
37998;DHT22;24079;51.824;4.682;2023-02-28T14:17:05;7.00;99.90
37998;DHT22;24079;51.824;4.682;2023-02-28T14:19:34;7.00;99.90
37998;DHT22;24079;51.824;4.682;2023-02-28T14:25:30;7.00;99.90
37998;DHT22;24079;51.824;4.682;2023-02-28T14:28:18;7.10;99.90
37998;DHT22;24079;51.824;4.682;2023-02-28T14:36:42;7.20;99.90
37998;DHT22;24079;51.824;4.682;2023-02-28T14:39:19;7.20;99.90
37998;DHT22;24079;51.824;4.682;2023-02-28T14:41:46;7.30;99.90
37998;DHT22;24079;51.824;4.682;2023-02-28T14:44:25;7.30;99.90
37998;DHT22;24079;51.824;4.682;2023-02-28T14:46:54;7.10;99.90
37998;DHT22;24079;51.824;4.682;2023-02-28T14:49:29;7.00;99.90
37998;DHT22;24079;51.824;4.682;2023-02-28T14:52:22;7.00;99.90
37998;DHT22;24079;51.824;4.682;2023-02-28T14:55:15;6.90;99.90
37998;DHT22;24079;51.824;4.682;2023-02-28T14:58:02;6.90;99.90
37998;DHT22;24079;51.824;4.682;2023-02-28T15:00:37;7.00;99.90
37998;DHT22;24079;51.824;4.682;2023-02-28T15:03:31;7.00;99.90
37998;DHT22;24079;51.824;4.682;2023-02-28T15:06:02;7.00;99.90
37998;DHT22;24079;51.824;4.682;2023-02-28T15:08:30;7.00;99.90
37998;DHT22;24079;51.824;4.682;2023-02-28T15:11:23;6.90;99.90
37998;DHT22;24079;51.824;4.682;2023-02-28T15:13:51;6.90;99.90
37998;DHT22;24079;51.824;4.682;2023-02-28T15:16:22;6.90;99.90
37998;DHT22;24079;51.824;4.682;2023-02-28T15:18:54;6.90;99.90
37998;DHT22;24079;51.824;4.682;2023-02-28T15:21:30;6.90;99.90
37998;DHT22;24079;51.824;4.682;2023-02-28T15:26:32;7.10;99.90
37998;DHT22;24079;51.824;4.682;2023-02-28T15:29:02;7.00;99.90
37998;DHT22;24079;51.824;4.682;2023-02-28T15:31:32;7.00;99.90
37998;DHT22;24079;51.824;4.682;2023-02-28T15:34:04;7.00;99.90
37998;DHT22;24079;51.824;4.682;2023-02-28T15:36:32;7.00;99.90
37998;DHT22;24079;51.824;4.682;2023-02-28T15:39:00;6.90;99.90
37998;DHT22;24079;51.824;4.682;2023-02-28T15:41:29;6.90;99.90
37998;DHT22;24079;51.824;4.682;2023-02-28T15:44:16;7.00;99.90
37998;DHT22;24079;51.824;4.682;2023-02-28T15:46:52;6.90;99.90
37998;DHT22;24079;51.824;4.682;2023-02-28T15:49:20;7.00;99.90
37998;DHT22;24079;51.824;4.682;2023-02-28T15:51:49;7.00;99.90
37998;DHT22;24079;51.824;4.682;2023-02-28T15:54:31;7.00;99.90
37998;DHT22;24079;51.824;4.682;2023-02-28T15:57:03;6.90;99.90
37998;DHT22;24079;51.824;4.682;2023-02-28T15:59:30;6.90;99.90
37998;DHT22;24079;51.824;4.682;2023-02-28T16:04:35;6.90;99.90
37998;DHT22;24079;51.824;4.682;2023-02-28T16:07:06;6.90;99.90
37998;DHT22;24079;51.824;4.682;2023-02-28T16:09:37;6.90;99.90
37998;DHT22;24079;51.824;4.682;2023-02-28T16:12:03;6.80;99.90
37998;DHT22;24079;51.824;4.682;2023-02-28T16:14:30;6.70;99.90
37998;DHT22;24079;51.824;4.682;2023-02-28T16:17:04;6.70;99.90
37998;DHT22;24079;51.824;4.682;2023-02-28T16:19:30;6.70;99.90
37998;DHT22;24079;51.824;4.682;2023-02-28T16:21:57;6.60;99.90
37998;DHT22;24079;51.824;4.682;2023-02-28T16:24:22;6.70;99.90
37998;DHT22;24079;51.824;4.682;2023-02-28T16:26:50;6.60;99.90
37998;DHT22;24079;51.824;4.682;2023-02-28T16:29:26;6.70;99.90
37998;DHT22;24079;51.824;4.682;2023-02-28T16:31:54;6.70;99.90
37998;DHT22;24079;51.824;4.682;2023-02-28T16:34:20;6.80;99.90
37998;DHT22;24079;51.824;4.682;2023-02-28T16:36:47;6.90;99.90
37998;DHT22;24079;51.824;4.682;2023-02-28T16:39:13;7.20;99.90
37998;DHT22;24079;51.824;4.682;2023-02-28T16:41:42;7.20;99.90
37998;DHT22;24079;51.824;4.682;2023-02-28T16:44:13;7.30;99.90
37998;DHT22;24079;51.824;4.682;2023-02-28T16:46:40;7.10;99.90
37998;DHT22;24079;51.824;4.682;2023-02-28T16:49:11;7.20;99.90
37998;DHT22;24079;51.824;4.682;2023-02-28T16:51:37;7.10;99.90
37998;DHT22;24079;51.824;4.682;2023-02-28T16:54:03;7.00;99.90
37998;DHT22;24079;51.824;4.682;2023-02-28T16:56:29;6.80;99.90
37998;DHT22;24079;51.824;4.682;2023-02-28T16:58:57;6.70;99.90
37998;DHT22;24079;51.824;4.682;2023-02-28T17:01:24;6.60;99.90
37998;DHT22;24079;51.824;4.682;2023-02-28T17:03:52;6.50;99.90
37998;DHT22;24079;51.824;4.682;2023-02-28T17:06:21;6.50;99.90
37998;DHT22;24079;51.824;4.682;2023-02-28T17:08:49;6.60;99.90
37998;DHT22;24079;51.824;4.682;2023-02-28T17:11:15;6.50;99.90
37998;DHT22;24079;51.824;4.682;2023-02-28T17:13:41;6.40;99.90
37998;DHT22;24079;51.824;4.682;2023-02-28T17:18:48;6.40;99.90
37998;DHT22;24079;51.824;4.682;2023-02-28T17:21:17;6.30;99.90
37998;DHT22;24079;51.824;4.682;2023-02-28T17:23:43;6.20;99.90
37998;DHT22;24079;51.824;4.682;2023-02-28T17:26:17;6.20;99.90
37998;DHT22;24079;51.824;4.682;2023-02-28T17:28:49;6.00;99.90
37998;DHT22;24079;51.824;4.682;2023-02-28T17:31:15;5.90;99.90
37998;DHT22;24079;51.824;4.682;2023-02-28T17:33:41;5.70;99.90
37998;DHT22;24079;51.824;4.682;2023-02-28T17:36:13;5.60;99.90
37998;DHT22;24079;51.824;4.682;2023-02-28T17:38:39;5.50;99.90
37998;DHT22;24079;51.824;4.682;2023-02-28T17:41:05;5.50;99.90
37998;DHT22;24079;51.824;4.682;2023-02-28T17:43:30;5.40;99.90
37998;DHT22;24079;51.824;4.682;2023-02-28T17:45:56;5.40;99.90
37998;DHT22;24079;51.824;4.682;2023-02-28T17:48:23;5.40;99.90
37998;DHT22;24079;51.824;4.682;2023-02-28T17:50:49;5.40;99.90
37998;DHT22;24079;51.824;4.682;2023-02-28T17:53:15;5.30;99.90
37998;DHT22;24079;51.824;4.682;2023-02-28T17:55:41;5.10;99.90
37998;DHT22;24079;51.824;4.682;2023-02-28T17:58:10;5.10;99.90
37998;DHT22;24079;51.824;4.682;2023-02-28T18:00:37;5.00;99.90
37998;DHT22;24079;51.824;4.682;2023-02-28T18:03:03;5.00;99.90
37998;DHT22;24079;51.824;4.682;2023-02-28T18:05:31;5.00;99.90
37998;DHT22;24079;51.824;4.682;2023-02-28T18:07:56;4.90;99.90
37998;DHT22;24079;51.824;4.682;2023-02-28T18:10:22;4.90;99.90
37998;DHT22;24079;51.824;4.682;2023-02-28T18:12:50;4.90;99.90
37998;DHT22;24079;51.824;4.682;2023-02-28T18:15:17;4.80;99.90
37998;DHT22;24079;51.824;4.682;2023-02-28T18:17:43;4.80;99.90
37998;DHT22;24079;51.824;4.682;2023-02-28T18:20:10;4.70;99.90
37998;DHT22;24079;51.824;4.682;2023-02-28T18:22:37;4.80;99.90
37998;DHT22;24079;51.824;4.682;2023-02-28T18:25:04;4.70;99.90
37998;DHT22;24079;51.824;4.682;2023-02-28T18:27:30;4.70;99.90
37998;DHT22;24079;51.824;4.682;2023-02-28T18:29:55;4.60;99.90
37998;DHT22;24079;51.824;4.682;2023-02-28T18:32:21;4.70;99.90
37998;DHT22;24079;51.824;4.682;2023-02-28T18:34:46;4.60;99.90